Monday, October 16, 2017, 6:13 PM EDT
Back to Local

KPIT, Greater Pittsburgh International

Location: Coraopolis, PA, United States Lat: 40.483
Local Time: 6:13 PM EDT (22:13 GMT) Lon: -80.233
Time Zone: US/Eastern Elev: 1204 ft

Show me the last for .
Show Decoded

2017-10-16 17:51 METAR KPIT 162151Z 34014KT 10SM SCT046 13/00 A3023 RMK AO2 SLP246 T01330000 =
2017-10-16 16:51 METAR KPIT 162051Z 32012KT 10SM SCT045 14/M01 A3021 RMK AO2 SLP238 T01441006
                 56004 =
2017-10-16 15:51 METAR KPIT 161951Z 31013KT 10SM FEW043 FEW070 14/02 A3021 RMK AO2 SLP238
                 T01390022 =
2017-10-16 14:51 METAR KPIT 161851Z 32011G21KT 10SM SCT040 SCT065 14/02 A3021 RMK AO2 SLP238
                 T01390022 =
2017-10-16 13:51 METAR KPIT 161751Z 32011KT 10SM FEW038 SCT060 13/04 A3022 RMK AO2 RAB15E24
                 SLP242 P0000 60000 T01330044 10139 20083 56002 =
2017-10-16 12:51 METAR KPIT 161651Z 33012G20KT 10SM BKN036 BKN065 13/03 A3023 RMK AO2 SLP243
                 T01330028 =
2017-10-16 12:24 METAR KPIT 161624Z 36010KT 10SM BKN034 BKN060 12/04 A3023 RMK AO2 T01220044 =
2017-10-16 11:51 METAR KPIT 161551Z 34011G19KT 10SM BKN028 BKN040 BKN075 13/05 A3022 RMK AO2
                 SLP243 T01280050 =
2017-10-16 10:51 METAR KPIT 161451Z 01010KT 10SM BKN028 BKN040 BKN075 11/06 A3023 RMK AO2 SLP245
                 60000 T01060061 51019 =
2017-10-16 10:34 METAR KPIT 161434Z 35009KT 10SM FEW020 BKN025 BKN040 11/07 A3022 RMK AO2
                 T01060067 =
2017-10-16 09:51 METAR KPIT 161351Z 34010KT 10SM SCT011 BKN032 BKN055 10/07 A3021 RMK AO2 RAE09
                 SLP239 P0000 T01000067 =
2017-10-16 09:22 METAR KPIT 161322Z 35008KT 10SM FEW009 BKN032 BKN070 09/07 A3020 RMK AO2 RAE09
                 P0000 T00940072 =
2017-10-16 08:51 METAR KPIT 161251Z 33007KT 10SM -RA FEW009 BKN028 BKN045 09/07 A3019 RMK AO2
                 RAE18B48DZB18E48 SLP234 P0000 T00890072 =
2017-10-16 07:51 METAR KPIT 161151Z 34009KT 10SM -RA FEW007 BKN028 OVC038 09/08 A3017 RMK AO2
                 DZE44RAB44 SLP225 P0000 60000 70019 T00890078 10128 20089 51020 =
2017-10-16 07:37 METAR KPIT 161137Z 31007KT 10SM -DZ FEW007 BKN028 OVC036 09/08 A3017 RMK AO2
                 P0000 T00890083 =
2017-10-16 06:51 METAR KPIT 161051Z 31008KT 10SM -DZ FEW006 OVC036 09/08 A3015 RMK AO2 SLP217
                 BINOVC P0000 T00890083 =
2017-10-16 06:25 METAR KPIT 161025Z 32007KT 8SM -DZ FEW006 OVC036 09/08 A3014 RMK AO2 P0000
                 T00890083 =
2017-10-16 05:51 METAR KPIT 160951Z 31007KT 10SM -DZ SCT022 OVC033 09/08 A3013 RMK AO2
                 RAB04E33DZB33 SLP209 P0000 T00890078 =
2017-10-16 04:51 METAR KPIT 160851Z 31011KT 10SM BKN034 BKN050 11/07 A3011 RMK AO2 SLP200
                 T01060067 53016 =
2017-10-16 03:51 METAR KPIT 160751Z 32011KT 10SM FEW023 OVC046 11/07 A3009 RMK AO2 SLP193
                 T01110067 =
2017-10-16 03:23 METAR KPIT 160723Z 32008KT 10SM SCT025 OVC044 12/07 A3009 RMK AO2 T01170067 =
2017-10-16 02:51 METAR KPIT 160651Z 34011KT 10SM BKN022 BKN028 OVC037 12/07 A3008 RMK AO2 SLP188
                 T01220072 =
2017-10-16 02:47 METAR KPIT 160647Z 34010KT 10SM BKN021 BKN028 OVC045 12/08 A3008 RMK AO2 =
2017-10-16 01:51 METAR KPIT 160551Z 32013G19KT 10SM OVC036 13/08 A3006 RMK AO2 SLP183 T01280078
                 10161 20122 53019 =
2017-10-16 00:51 METAR KPIT 160451Z 29008KT 10SM SCT034 OVC047 13/09 A3004 RMK AO2 SLP175
                 T01280094 402390122 =
2017-10-15 23:51 METAR KPIT 160351Z 27007KT 10SM SCT027 BKN032 13/09 A3002 RMK AO2 SLP168
                 T01280089 =
2017-10-15 22:51 METAR KPIT 160251Z 29012KT 10SM SCT031 BKN100 13/09 A3000 RMK AO2 CIG 031 SE
                 SLP162 T01330094 51028 =
2017-10-15 21:51 METAR KPIT 160151Z 32013KT 10SM FEW029 BKN039 15/11 A2998 RMK AO2 PK WND
                 29026/0135 SLP156 T01500106 =
2017-10-15 20:51 METAR KPIT 160051Z 28009KT 10SM FEW023 SCT031 OVC100 16/13 A2996 RMK AO2 PRESRR
                 SLP147 T01560128 =
2017-10-15 19:51 METAR KPIT 152351Z 28011G16KT 10SM FEW024 BKN065 OVC090 16/14 A2992 RMK AO2
                 RAB02E12 SLP134 P0000 60019 T01610139 10239 20161 53033 =
2017-10-15 18:51 METAR KPIT 152251Z 31012KT 10SM FEW015 SCT022 OVC045 17/16 A2989 RMK AO2 PK WND
                 28033/2202 WSHFT 2153 RAE42 SLP124 P0019 T01720161 =
2017-10-15 18:42 METAR KPIT 152242Z 31016KT 10SM FEW015 SCT022 OVC046 17/16 A2988 RMK AO2 PK WND
                 28033/2202 WSHFT 2153 RAE42 P0019 T01720161 =

Support USWX by starting your Amazon purchase here.